YKC weather

Collins Bay Airport
Collins Bay, Saskatchewan, Canada

Public forecast

Using degrees Celsius for public forecast. Weather courtesy of forecast.io.

Closest aviation weather report (METAR) to Collins Bay Airport

Closest report is Key Lake Airport, 85.6 nm (158.5 km) SW. Retrieved 2020/01/21 07:00 UTC (48 minutes ago):

CYKJ 210700Z AUTO 19006KT 140V200 9SM SCT095 BKN110 M10/M12 A2950 RMK SLP036

Closest aviation forecast (TAF) to Collins Bay Airport

Forecast is more than 12 hours old.

Closest forecast is Key Lake Airport, 85.6 nm (158.5 km) SW. Retrieved 2020/01/20 19:00 UTC (13 hours ago):

TAF CYKJ 201838Z 2019/2024 22005KT P6SM SCT008 TEMPO 2019/2021 BKN008 FM202100 22006KT P6SM FEW140 BKN240 RMK FCST BASED ON AUTO OBS NXT FCST WILL BE ISSUED AT 210945Z